createdAt,value
2023-08-29T00:04:50.231Z,97608.41
2023-08-29T00:09:53.975Z,97611.88
2023-08-29T00:14:57.595Z,97620.88
2023-08-29T00:19:59.511Z,97625.13
2023-08-29T00:25:01.315Z,97627.47
2023-08-29T00:30:03.232Z,97630.97
2023-08-29T00:35:05.355Z,97613.41
2023-08-29T00:40:08.456Z,97611.44
2023-08-29T00:45:10.969Z,97612.59
2023-08-29T00:50:12.833Z,97621.13
2023-08-29T00:55:16.199Z,97605.06
2023-08-29T01:00:18.059Z,97601.56
2023-08-29T01:05:21.851Z,97591.41
2023-08-29T01:10:35.275Z,97584.41
2023-08-29T01:15:37.962Z,97583.69
2023-08-29T01:20:41.471Z,97584.47
2023-08-29T01:26:14.759Z,97575.13
2023-08-29T01:31:18.567Z,97561.84
2023-08-29T01:36:23.195Z,97554.84
2023-08-29T01:41:25.044Z,97550.94
2023-08-29T01:46:26.912Z,97552.50
2023-08-29T01:51:29.234Z,97540.38
2023-08-29T01:56:32.608Z,97540.78
2023-08-29T02:01:34.732Z,97546.63
2023-08-29T02:06:36.593Z,97532.22
2023-08-29T02:11:39.613Z,97529.16
2023-08-29T02:16:41.862Z,97501.09
2023-08-29T02:21:49.923Z,97476.09
2023-08-29T02:26:51.824Z,97465.94
2023-08-29T02:31:53.735Z,97453.91
2023-08-29T02:36:55.592Z,97452.78
2023-08-29T02:41:57.407Z,97455.09
2023-08-29T02:47:02.104Z,97443.41
2023-08-29T02:52:04.242Z,97439.84
2023-08-29T02:57:06.113Z,97458.97
2023-08-29T03:02:07.944Z,97474.97
2023-08-29T03:07:09.764Z,97454.34
2023-08-29T03:12:11.774Z,97440.28
2023-08-29T03:17:13.725Z,97442.63
2023-08-29T03:22:15.842Z,97432.47
2023-08-29T03:27:17.718Z,97419.63
2023-08-29T03:32:19.652Z,97445.34
2023-08-29T03:37:22.056Z,97456.69
2023-08-29T03:42:23.970Z,97462.16
2023-08-29T03:47:25.980Z,97468.34
2023-08-29T03:52:28.533Z,97438.69
2023-08-29T03:57:31.778Z,97425.47
2023-08-29T04:02:33.985Z,97429.38
2023-08-29T04:07:35.816Z,97422.00
2023-08-29T04:12:37.849Z,97419.25
2023-08-29T04:17:40.583Z,97420.06
2023-08-29T04:22:42.578Z,97445.06
2023-08-29T04:27:45.338Z,97456.81
2023-08-29T04:32:49.614Z,97440.81
2023-08-29T04:37:51.577Z,97428.00
2023-08-29T04:42:53.688Z,97415.53
2023-08-29T04:47:55.794Z,97416.34
2023-08-29T04:52:58.583Z,97432.72
2023-08-29T04:58:01.266Z,97431.19
2023-08-29T05:03:05.664Z,97436.63
2023-08-29T05:08:08.013Z,97449.53
2023-08-29T05:13:11.440Z,97449.84
2023-08-29T05:18:14.821Z,97441.22
2023-08-29T05:23:16.877Z,97443.56
2023-08-29T05:28:18.794Z,97440.41
2023-08-29T05:33:20.632Z,97454.47
2023-08-29T05:38:26.718Z,97464.56
2023-08-29T05:43:28.593Z,97467.69
2023-08-29T05:48:30.504Z,97461.41
2023-08-29T05:53:32.343Z,97453.22
2023-08-29T05:58:34.220Z,97464.56
2023-08-29T06:03:37.590Z,97459.91
2023-08-29T06:08:41.499Z,97455.66
2023-08-29T06:13:43.528Z,97445.97
2023-08-29T06:18:45.349Z,97447.94
2023-08-29T06:23:47.230Z,97454.56
2023-08-29T06:28:49.130Z,97456.53
2023-08-29T06:33:51.056Z,97457.69
2023-08-29T06:38:52.900Z,97452.59
2023-08-29T06:43:54.673Z,97461.59
2023-08-29T06:48:56.514Z,97465.84
2023-08-29T06:53:58.919Z,97457.25
2023-08-29T06:59:01.052Z,97462.34
2023-08-29T07:04:02.897Z,97449.03
2023-08-29T07:09:05.278Z,97459.19
2023-08-29T07:14:07.179Z,97468.53
2023-08-29T07:19:08.963Z,97470.03
2023-08-29T07:24:11.575Z,97463.31
2023-08-29T07:29:14.474Z,97458.16
2023-08-29T07:34:17.282Z,97451.81
2023-08-29T07:39:20.331Z,97458.75
2023-08-29T07:44:22.179Z,97466.53
2023-08-29T07:49:24.040Z,97459.88
2023-08-29T07:54:25.892Z,97479.03
2023-08-29T07:59:27.887Z,97484.91
2023-08-29T08:04:29.857Z,97488.47
2023-08-29T08:09:31.725Z,97483.78
2023-08-29T08:14:33.870Z,97485.31
2023-08-29T08:19:35.786Z,97483.78
2023-08-29T08:24:37.654Z,97479.13
2023-08-29T08:29:39.443Z,97471.25
2023-08-29T08:34:41.335Z,97468.09
2023-08-29T08:39:43.206Z,97475.09
2023-08-29T08:44:45.216Z,97478.63
2023-08-29T08:49:47.344Z,97484.50
2023-08-29T08:54:49.201Z,97494.56
2023-08-29T08:59:51.073Z,97500.34
2023-08-29T09:04:54.713Z,97487.81
2023-08-29T09:10:11.139Z,97469.50
2023-08-29T09:15:13.500Z,97501.16
2023-08-29T09:20:15.544Z,97499.19
2023-08-29T09:25:17.482Z,97490.97
2023-08-29T09:30:20.602Z,97491.28
2023-08-29T09:35:26.328Z,97485.81
2023-08-29T09:40:39.745Z,97499.47
2023-08-29T09:45:43.193Z,97487.28
2023-08-29T09:50:46.816Z,97491.13
2023-08-29T09:56:09.301Z,97495.03
2023-08-29T10:01:13.613Z,97492.34
2023-08-29T10:06:19.148Z,97486.53
2023-08-29T10:11:21.490Z,97485.38
2023-08-29T10:16:24.668Z,97486.16
2023-08-29T10:21:29.251Z,97482.28
2023-08-29T10:26:32.460Z,97486.59
2023-08-29T10:31:35.515Z,97491.66
2023-08-29T10:36:40.602Z,97489.66
2023-08-29T10:41:50.063Z,97486.47
2023-08-29T10:46:53.383Z,97495.41
2023-08-29T10:52:11.216Z,97503.53
2023-08-29T10:57:32.242Z,97495.63
2023-08-29T11:02:34.271Z,97510.41
2023-08-29T11:07:36.278Z,97505.66
2023-08-29T11:12:38.326Z,97500.13
2023-08-29T11:17:40.349Z,97505.16
2023-08-29T11:22:49.114Z,97493.00
2023-08-29T11:27:50.951Z,97496.94
2023-08-29T11:32:53.330Z,97492.59
2023-08-29T11:37:55.517Z,97493.69
2023-08-29T11:43:21.589Z,97489.00
2023-08-29T11:48:25.046Z,97492.53
2023-08-29T11:53:33.557Z,97481.28
2023-08-29T11:58:36.654Z,97481.31
2023-08-29T12:03:39.886Z,97481.75
2023-08-29T12:08:44.168Z,97478.97
2023-08-29T12:14:01.154Z,97479.78
2023-08-29T12:19:15.008Z,97485.66
2023-08-29T12:24:16.894Z,97512.69
2023-08-29T12:29:19.923Z,97508.13
2023-08-29T12:34:21.718Z,97509.69
2023-08-29T12:39:23.511Z,97506.47
2023-08-29T12:44:25.311Z,97513.44
2023-08-29T12:49:27.322Z,97517.28
2023-08-29T12:54:31.639Z,97496.47
2023-08-29T12:59:33.452Z,97499.56
2023-08-29T13:04:35.364Z,97505.78
2023-08-29T13:09:39.414Z,97494.38
2023-08-29T13:14:41.270Z,97493.53
2023-08-29T13:19:43.369Z,97481.06
2023-08-29T13:24:45.158Z,97484.25
2023-08-29T13:29:46.956Z,97494.03
2023-08-29T13:34:48.754Z,97493.59
2023-08-29T13:39:57.436Z,97482.59
2023-08-29T13:44:59.704Z,97496.56
2023-08-29T13:50:01.674Z,97504.28
2023-08-29T13:55:04.294Z,97492.63
2023-08-29T14:00:07.021Z,97491.91
2023-08-29T14:05:15.130Z,97498.78
2023-08-29T14:10:17.982Z,97497.00
2023-08-29T14:15:20.963Z,97488.22
2023-08-29T14:20:22.804Z,97487.28
2023-08-29T14:25:24.718Z,97489.56
2023-08-29T14:30:26.715Z,97500.59
2023-08-29T14:35:29.074Z,97488.75
2023-08-29T14:40:30.962Z,97489.41
2023-08-29T14:45:33.952Z,97479.16
2023-08-29T14:50:36.164Z,97478.75
2023-08-29T14:55:38.004Z,97478.31
2023-08-29T15:00:42.430Z,97493.56
2023-08-29T15:05:44.320Z,97480.59
2023-08-29T15:10:46.239Z,97481.06
2023-08-29T15:15:48.567Z,97481.47
2023-08-29T15:20:50.394Z,97480.63
2023-08-29T15:25:52.858Z,97482.97
2023-08-29T15:30:54.677Z,97475.53
2023-08-29T15:35:57.018Z,97473.59
2023-08-29T15:40:59.236Z,97469.03
2023-08-29T15:46:01.163Z,97473.91
2023-08-29T15:51:03.057Z,97477.13
2023-08-29T15:56:06.292Z,97484.59
2023-08-29T16:01:08.889Z,97486.25
2023-08-29T16:06:10.841Z,97490.59
2023-08-29T16:11:13.644Z,97490.56
2023-08-29T16:16:15.495Z,97503.06
2023-08-29T16:21:17.902Z,97511.56
2023-08-29T16:26:22.708Z,97508.44
2023-08-29T16:31:24.589Z,97516.66
2023-08-29T16:36:26.403Z,97515.91
2023-08-29T16:41:28.217Z,97513.31
2023-08-29T16:46:30.170Z,97526.63
2023-08-29T16:51:32.145Z,97523.03
2023-08-29T16:56:33.966Z,97536.75
2023-08-29T17:01:35.913Z,97535.97
2023-08-29T17:06:37.808Z,97519.97
2023-08-29T17:11:39.809Z,97519.97
2023-08-29T17:16:41.725Z,97527.38
2023-08-29T17:21:43.558Z,97527.47
2023-08-29T17:26:45.437Z,97530.28
2023-08-29T17:31:47.348Z,97541.63
2023-08-29T17:36:49.582Z,97542.34
2023-08-29T17:41:51.465Z,97541.16
2023-08-29T17:46:53.595Z,97539.22
2023-08-29T17:51:55.431Z,97541.16
2023-08-29T17:56:57.237Z,97543.06
2023-08-29T18:01:59.101Z,97542.59
2023-08-29T18:07:01.070Z,97547.22
2023-08-29T18:12:02.974Z,97542.63
2023-08-29T18:17:04.886Z,97540.81
2023-08-29T18:22:06.749Z,97545.16
2023-08-29T18:27:09.852Z,97551.94
2023-08-29T18:32:11.804Z,97552.94
2023-08-29T18:37:13.687Z,97561.34
2023-08-29T18:42:15.677Z,97562.44
2023-08-29T18:47:17.535Z,97574.13
2023-08-29T18:52:19.492Z,97571.00
2023-08-29T18:57:21.321Z,97570.09
2023-08-29T19:02:23.250Z,97566.75
2023-08-29T19:07:25.181Z,97570.31
2023-08-29T19:12:27.025Z,97567.63
2023-08-29T19:17:29.270Z,97568.50
2023-08-29T19:22:31.297Z,97566.06
2023-08-29T19:27:33.136Z,97552.75
2023-08-29T19:32:35.385Z,97546.88
2023-08-29T19:37:37.353Z,97546.44
2023-08-29T19:42:39.346Z,97535.13
2023-08-29T19:47:42.917Z,97528.84
2023-08-29T19:52:48.268Z,97507.31
2023-08-29T19:57:50.692Z,97505.78
2023-08-29T20:02:52.547Z,97497.91
2023-08-29T20:07:55.791Z,97495.31
2023-08-29T20:12:59.736Z,97505.50
2023-08-29T20:18:01.599Z,97507.81
2023-08-29T20:23:04.622Z,97496.91
2023-08-29T20:28:09.119Z,97507.16
2023-08-29T20:33:11.385Z,97524.44
2023-08-29T20:38:15.885Z,97528.00
2023-08-29T20:43:18.549Z,97536.94
2023-08-29T20:48:20.701Z,97559.69
2023-08-29T20:53:22.587Z,97569.06
2023-08-29T20:58:25.751Z,97568.69
2023-08-29T21:03:34.113Z,97555.41
2023-08-29T21:08:36.473Z,97556.53
2023-08-29T21:13:41.112Z,97555.03
2023-08-29T21:18:43.173Z,97562.44
2023-08-29T21:23:46.796Z,97553.81
2023-08-29T21:28:50.101Z,97552.97
2023-08-29T21:33:51.963Z,97560.75
2023-08-29T21:38:53.782Z,97549.09
2023-08-29T21:43:55.851Z,97546.34
2023-08-29T21:48:57.662Z,97546.69
2023-08-29T21:53:59.547Z,97541.63
2023-08-29T21:59:01.371Z,97535.03
2023-08-29T22:04:03.249Z,97526.50
2023-08-29T22:09:05.093Z,97522.28
2023-08-29T22:14:06.936Z,97530.50
2023-08-29T22:19:09.006Z,97520.41
2023-08-29T22:24:11.282Z,97525.13
2023-08-29T22:29:13.185Z,97532.53
2023-08-29T22:34:15.011Z,97512.25
2023-08-29T22:39:17.004Z,97519.69
2023-08-29T22:44:18.893Z,97522.75
2023-08-29T22:49:22.641Z,97517.56
2023-08-29T22:54:25.241Z,97515.53
2023-08-29T22:59:28.010Z,97510.78
2023-08-29T23:04:29.958Z,97496.38
2023-08-29T23:09:35.570Z,97496.81
2023-08-29T23:14:37.382Z,97505.44
2023-08-29T23:19:39.227Z,97495.66
2023-08-29T23:24:41.056Z,97485.94
2023-08-29T23:29:43.730Z,97491.41
2023-08-29T23:34:46.401Z,97496.97
2023-08-29T23:39:48.790Z,97487.22
2023-08-29T23:44:50.740Z,97482.56
2023-08-29T23:49:52.622Z,97472.84
2023-08-29T23:54:54.436Z,97452.56
2023-08-29T23:59:56.237Z,97448.28
